Борисполь

Карта отелей и гостиниц, располагающихся рядом с аэропортом Борисполь :

Борисполь
Киев
Киевская область 50° 20' 28.2588" N, 30° 53' 41.5212" E
Код аэродрома ИКАО
UKBB
Код аэродрома RU
УКББ
Координаты
N50.34118° E030.89487°
Превышение над уровнем моря
131
Основная полоса
18L/36R
Курс магнитный
356/176
Длина основной ВПП
4000
Ширина основной ВПП
60
Покрытие основной ВПП
Твёрдое (асфальтобетон)
Освещение ВПП
Постоянное
Тип: 
Аэродром
Класс аэродрома: 
Международный
Принадлежность: 
ГА
Статус: 
Действующий
Сайт: 
www.kbp.kiev.ua
E-mail аэродрома: 
lev@airport-borispol.kiev.ua
Страна: 
Украина
Регион: 
Киевская область
Город: 
Киев
Погода: 

Авиационная погода в Борисполе

Регион: 
Погода METAR: 
UKBB 221800Z 30002MPS 9999 FEW032 M06/M07 Q1012 TEMPO 1600 SHSN SCT015CB
Время наблюдения
2022-01-22T18:00:00Z
Температура C
-6.0
Точка росы
-7.0
Направление ветра
300
Скорость ветра (узлы)
4
Метео видимость
6.21
Облачность
FEW
Нижняя граница облачности (футы)
3200
Явления погоды
Условия полета
VFR
Аэропорт подробнее: 
FEW – незначительная облачность;

Найти трансфер

С помощью этой формы Вы можете найти трансфер из аэропорта Борисполь в город, аэропорт или вокзал:

Погода в аэропортах:

Авиационная погода в Алматы

Регион: 
Погода METAR: 
UAAA 221800Z 26001MPS 1600 R23R/P2000N R23L/P2000N BR SCT011 BKN100 M04/M05 Q1023 NOSIG
Время наблюдения
2022-01-22T18:00:00Z
Температура C
-4.0
Точка росы
-5.0
Направление ветра
260
Скорость ветра (узлы)
2
Метео видимость
0.99
Облачность
SCT
BKN
Нижняя граница облачности (футы)
1100
10000
Явления погоды
BR
Условия полета
LIFR
Аэропорт подробнее: 
SCT – разбросанная отдельная облачность; BKN – значительная (рассеянная, разорванная) облачность;
BR – дымка (видимость от 1 до 9 км);

Авиационная погода в Ивано-Франковске

Регион: 
Погода METAR: 
UKLI 221800Z 29005MPS 240V310 9999 -SHSN BKN020CB BKN036 M03/M06 Q1019 TEMPO 29011G16MPS
Время наблюдения
2022-01-22T18:00:00Z
Температура C
-3.0
Точка росы
-6.0
Направление ветра
290
Скорость ветра (узлы)
10
Метео видимость
6.21
Облачность
BKN
BKN
Нижняя граница облачности (футы)
2000
3600
Явления погоды
-SHSN
Условия полета
MVFR
Аэропорт подробнее: 
BKN – значительная (рассеянная, разорванная) облачность;
-SHSN - слабый ливневой снег;

Авиационная погода в Минске

Регион: 
Погода METAR: 
UMMS 221743Z 35008G12MPS 2800 -SHSN BLSN BKN015CB BKN041 M04/M05 Q1012 NOSIG
Время наблюдения
2022-01-22T17:43:00Z
Температура C
-4.0
Точка росы
-5.0
Направление ветра
350
Скорость ветра (узлы)
16
Метео видимость
1.74
Облачность
BKN
BKN
Нижняя граница облачности (футы)
1500
4100
Явления погоды
-SHSN BLSN
Условия полета
IFR
Аэропорт подробнее: 
BKN – значительная (рассеянная, разорванная) облачность;
-SHSN - слабый ливневой снег, BLSN – метель низовая или общая;

Авиационная погода в Синопе

Регион: 
Погода METAR: 
LTCM 220850Z 25007KT 6000 -RA SCT014 BKN032 BKN080 02/01 Q1016
Время наблюдения
2022-01-22T08:50:00Z
Температура C
2.0
Точка росы
1.0
Направление ветра
250
Скорость ветра (узлы)
7
Метео видимость
3.73
Облачность
SCT
BKN
BKN
Нижняя граница облачности (футы)
1400
3200
8000
Явления погоды
-RA
Условия полета
MVFR
SCT – разбросанная отдельная облачность; BKN – значительная (рассеянная, разорванная) облачность;
-RA - слабый дождь;